Loganville, Wisconsin
Current Conditions -  °F | °C
As of 3:35 AM on Tuesday 21 Oct 2014 (Local Time) from KC35 Reporting Station
Overcast Overcast  
Wind Chill: 43°   Ceiling: 3600
Heat Index: 46°   Visibility: 10mi
Dew Point: 39°   Wind: 5mph
Humidity: 78%   Direction: 10°N
Pressure: 30.09"   Gusts: NA
Location:  43.44°N, 90.04°W
Report Text: KC35 210835Z AUTO 01004KT 10SM OVC036 08/04 A3009 RMK AO2 T00750038
Loading
Personal Weather Stations






























Interactive Weather Map
Tropical Storm Tracking
New forecast layout! Learn more

10-Day Weather Forecast

Advertisements
Track Severe Weather on mobile